Terminal Aerodrome Forecast
Issued by NWS

Home | Current Version | Previous Version | Text Only | Print | Product List | Glossary On
Versions: 1 2 3 4 5 6 7 8 9 10 11 12 13 14 15 16 17
000
FTUS41 KALY 252331
TAFPSF
TAF
KPSF 252331Z 2600/2624 VRB02KT P6SM SCT045 SCT250
     FM260400 00000KT 4SM BR SCT002
      TEMPO 2604/2607 1SM BR FEW003
     FM260700 00000KT 1/2SM FG VV002
     FM261300 VRB05KT P6SM FEW035=

USA.gov is the U.S. government's official web portal to all federal, state and local government web resources and services.